PWSweather.com
Personal Weather Stations
Station Observations
KWIATHEL1
Marinette County, Athelstane, WI 54104

Marinette CountyAthelstane, WI 54104

Lat: 45.4, Lon: -88.12

Elevation: 960

Station Type: Acurite 5in1 Pro

http://weather.athelstanewi.com

High Low Average
Temperature 71.6°F22.0°F 49.5°F9.7°F 56.7°F13.7°F
Dew Point 57.3°F14.1°F 48.9°F9.4°F 52.2°F11.2°F
Winds 4.6 mph W7.4 mph W Calm Calm 1.1 mph 1.8 mph
Wind Gusts 6.9 mph11.1 mph -- 1.7 mph2.7 mph
Humidity 98% 50% 86%
Pressure 29.98 in1015.20 in 29.87 in1011.50 in -
Precipitation 0.24 in6.10 in - -
Hour Temp Dew Point Humidity Winds Wind Gusts Pressure Precip Precip Rate Daily Precip Total
12:00 AM 51.8°F11.0°C 51.3°F10.7°C 98% Calm Calm -- 29.91 in1012.9 mb - 0.00 in0.0 mm 0.00 in0.0 mm
12:10 AM 51.8°F11.0°C 51.3°F10.7°C 98% Calm Calm -- 29.91 in1012.9 mb - 0.01 in0.3 mm 0.01 in0.3 mm
12:15 AM 51.8°F11.0°C 51.3°F10.7°C 98% Calm Calm -- 29.91 in1012.9 mb - 0.00 in0.0 mm 0.01 in0.3 mm
12:20 AM 51.8°F11.0°C 51.3°F10.7°C 98% Calm Calm -- 29.92 in1013.2 mb - 0.01 in0.3 mm 0.02 in0.5 mm
12:25 AM 51.8°F11.0°C 51.3°F10.7°C 98% Calm Calm 2.3 mph3.7 kmh 29.91 in1012.9 mb - 0.00 in0.0 mm 0.02 in0.5 mm
12:30 AM 51.8°F11.0°C 51.3°F10.7°C 98% Calm Calm 1.2 mph1.9 kmh 29.91 in1012.9 mb - 0.00 in0.0 mm 0.02 in0.5 mm
12:35 AM 51.8°F11.0°C 51.3°F10.7°C 98% Calm Calm -- 29.91 in1012.9 mb - 0.00 in0.0 mm 0.02 in0.5 mm
12:40 AM 51.8°F11.0°C 51.3°F10.7°C 98% Calm Calm -- 29.91 in1012.9 mb - 0.02 in0.5 mm 0.04 in1.0 mm
12:45 AM 51.8°F11.0°C 51.3°F10.7°C 98% Calm Calm -- 29.91 in1012.9 mb - 0.01 in0.3 mm 0.05 in1.3 mm
12:50 AM 51.8°F11.0°C 51.3°F10.7°C 98% Calm Calm -- 29.91 in1012.9 mb - 0.00 in0.0 mm 0.05 in1.3 mm
12:55 AM 51.8°F11.0°C 51.3°F10.7°C 98% Calm Calm 1.2 mph1.9 kmh 29.91 in1012.9 mb - 0.00 in0.0 mm 0.05 in1.3 mm
01:00 AM 51.8°F11.0°C 51.3°F10.7°C 98% Calm Calm -- 29.92 in1013.2 mb - 0.01 in0.3 mm 0.06 in1.5 mm
01:10 AM 51.8°F11.0°C 51.3°F10.7°C 98% Calm Calm -- 29.91 in1012.9 mb - 0.00 in0.0 mm 0.06 in1.5 mm
01:15 AM 51.8°F11.0°C 51.3°F10.7°C 98% Calm Calm 1.2 mph1.9 kmh 29.91 in1012.9 mb - 0.01 in0.3 mm 0.07 in1.8 mm
01:20 AM 51.8°F11.0°C 51.3°F10.7°C 98% 1.2 mph SW1.9 kmh SW 1.2 mph1.9 kmh 29.91 in1012.9 mb - 0.00 in0.0 mm 0.07 in1.8 mm
01:25 AM 51.8°F11.0°C 51.3°F10.7°C 98% Calm Calm 1.2 mph1.9 kmh 29.91 in1012.9 mb - 0.00 in0.0 mm 0.07 in1.8 mm
01:30 AM 51.8°F11.0°C 51.3°F10.7°C 98% Calm Calm -- 29.91 in1012.9 mb - 0.00 in0.0 mm 0.07 in1.8 mm
01:35 AM 51.8°F11.0°C 51.3°F10.7°C 98% Calm Calm 2.3 mph3.7 kmh 29.91 in1012.9 mb - 0.00 in0.0 mm 0.07 in1.8 mm
01:40 AM 50.0°F10.0°C 49.5°F9.7°C 98% Calm Calm -- 29.91 in1012.9 mb - 0.01 in0.3 mm 0.08 in2.0 mm
01:45 AM 50.0°F10.0°C 49.5°F9.7°C 98% Calm Calm -- 29.90 in1012.5 mb - 0.00 in0.0 mm 0.08 in2.0 mm
01:50 AM 50.0°F10.0°C 49.5°F9.7°C 98% Calm Calm -- 29.91 in1012.9 mb - 0.00 in0.0 mm 0.08 in2.0 mm
01:55 AM 50.0°F10.0°C 49.5°F9.7°C 98% Calm Calm -- 29.91 in1012.9 mb - 0.01 in0.3 mm 0.09 in2.3 mm
02:00 AM 50.0°F10.0°C 49.5°F9.7°C 98% Calm Calm -- 29.90 in1012.5 mb - 0.01 in0.3 mm 0.10 in2.5 mm
02:10 AM 50.0°F10.0°C 49.5°F9.7°C 98% Calm Calm -- 29.90 in1012.5 mb - 0.01 in0.3 mm 0.10 in2.5 mm
02:15 AM 50.0°F10.0°C 49.5°F9.7°C 98% Calm Calm -- 29.90 in1012.5 mb - 0.01 in0.3 mm 0.11 in2.8 mm
02:20 AM 50.0°F10.0°C 49.5°F9.7°C 98% Calm Calm -- 29.89 in1012.2 mb - 0.00 in0.0 mm 0.11 in2.8 mm
02:25 AM 50.0°F10.0°C 49.5°F9.7°C 98% Calm Calm -- 29.90 in1012.5 mb - 0.01 in0.3 mm 0.12 in3.0 mm
02:30 AM 51.8°F11.0°C 51.3°F10.7°C 98% Calm Calm -- 29.89 in1012.2 mb - 0.00 in0.0 mm 0.12 in3.0 mm
02:35 AM 51.8°F11.0°C 51.3°F10.7°C 98% Calm Calm -- 29.89 in1012.2 mb - 0.01 in0.3 mm 0.13 in3.3 mm
02:40 AM 50.0°F10.0°C 49.5°F9.7°C 98% Calm Calm -- 29.90 in1012.5 mb - 0.00 in0.0 mm 0.13 in3.3 mm
02:45 AM 50.0°F10.0°C 49.5°F9.7°C 98% Calm Calm -- 29.90 in1012.5 mb - 0.00 in0.0 mm 0.13 in3.3 mm
02:50 AM 50.0°F10.0°C 49.5°F9.7°C 98% Calm Calm -- 29.89 in1012.2 mb - 0.00 in0.0 mm 0.13 in3.3 mm
02:55 AM 50.0°F10.0°C 49.5°F9.7°C 98% Calm Calm -- 29.89 in1012.2 mb - 0.01 in0.3 mm 0.14 in3.6 mm
03:00 AM 50.0°F10.0°C 49.5°F9.7°C 98% Calm Calm -- 29.88 in1011.9 mb - 0.00 in0.0 mm 0.14 in3.6 mm
03:10 AM 50.0°F10.0°C 49.5°F9.7°C 98% Calm Calm -- 29.88 in1011.9 mb - 0.01 in0.3 mm 0.15 in3.8 mm
03:15 AM 50.0°F10.0°C 49.5°F9.7°C 98% Calm Calm -- 29.89 in1012.2 mb - 0.00 in0.0 mm 0.15 in3.8 mm
03:20 AM 51.8°F11.0°C 51.3°F10.7°C 98% Calm Calm -- 29.88 in1011.9 mb - 0.00 in0.0 mm 0.15 in3.8 mm
03:25 AM 51.8°F11.0°C 51.3°F10.7°C 98% Calm Calm -- 29.88 in1011.9 mb - 0.00 in0.0 mm 0.15 in3.8 mm
03:30 AM 50.0°F10.0°C 49.5°F9.7°C 98% Calm Calm -- 29.88 in1011.9 mb - 0.01 in0.3 mm 0.16 in4.1 mm
03:35 AM 51.4°F10.8°C 50.9°F10.5°C 98% Calm Calm -- 29.88 in1011.9 mb - 0.00 in0.0 mm 0.16 in4.1 mm
03:40 AM 51.8°F11.0°C 51.3°F10.7°C 98% Calm Calm -- 29.88 in1011.9 mb - 0.00 in0.0 mm 0.16 in4.1 mm
03:45 AM 51.8°F11.0°C 51.3°F10.7°C 98% Calm Calm -- 29.88 in1011.9 mb - 0.00 in0.0 mm 0.16 in4.1 mm
03:50 AM 51.8°F11.0°C 51.3°F10.7°C 98% Calm Calm -- 29.88 in1011.9 mb - 0.00 in0.0 mm 0.16 in4.1 mm
03:55 AM 51.8°F11.0°C 51.3°F10.7°C 98% Calm Calm -- 29.88 in1011.9 mb - 0.00 in0.0 mm 0.16 in4.1 mm
04:00 AM 50.0°F10.0°C 49.5°F9.7°C 98% Calm Calm -- 29.88 in1011.9 mb - 0.00 in0.0 mm 0.16 in4.1 mm
04:10 AM 50.0°F10.0°C 49.5°F9.7°C 98% Calm Calm -- 29.87 in1011.5 mb - 0.00 in0.0 mm 0.16 in4.1 mm
04:15 AM 50.0°F10.0°C 49.5°F9.7°C 98% Calm Calm -- 29.88 in1011.9 mb - 0.00 in0.0 mm 0.16 in4.1 mm
04:20 AM 50.0°F10.0°C 49.5°F9.7°C 98% Calm Calm -- 29.88 in1011.9 mb - 0.00 in0.0 mm 0.16 in4.1 mm
04:25 AM 50.0°F10.0°C 49.5°F9.7°C 98% Calm Calm -- 29.88 in1011.9 mb - 0.00 in0.0 mm 0.16 in4.1 mm
04:30 AM 50.0°F10.0°C 49.5°F9.7°C 98% Calm Calm -- 29.88 in1011.9 mb - 0.00 in0.0 mm 0.16 in4.1 mm
04:35 AM 50.0°F10.0°C 49.5°F9.7°C 98% Calm Calm -- 29.88 in1011.9 mb - 0.00 in0.0 mm 0.16 in4.1 mm
04:40 AM 50.0°F10.0°C 49.5°F9.7°C 98% Calm Calm -- 29.88 in1011.9 mb - 0.00 in0.0 mm 0.16 in4.1 mm
04:45 AM 50.0°F10.0°C 49.5°F9.7°C 98% Calm Calm -- 29.89 in1012.2 mb - 0.00 in0.0 mm 0.16 in4.1 mm
04:50 AM 50.0°F10.0°C 49.5°F9.7°C 98% Calm Calm 1.2 mph1.9 kmh 29.89 in1012.2 mb - 0.00 in0.0 mm 0.16 in4.1 mm
04:55 AM 50.0°F10.0°C 49.5°F9.7°C 98% Calm Calm -- 29.88 in1011.9 mb - 0.00 in0.0 mm 0.16 in4.1 mm
05:00 AM 50.0°F10.0°C 49.5°F9.7°C 98% Calm Calm -- 29.90 in1012.5 mb - 0.00 in0.0 mm 0.16 in4.1 mm
05:10 AM 50.0°F10.0°C 49.5°F9.7°C 98% Calm Calm 1.2 mph1.9 kmh 29.90 in1012.5 mb - 0.00 in0.0 mm 0.16 in4.1 mm
05:15 AM 50.0°F10.0°C 49.5°F9.7°C 98% Calm Calm 1.2 mph1.9 kmh 29.91 in1012.9 mb - 0.00 in0.0 mm 0.16 in4.1 mm
05:20 AM 50.0°F10.0°C 49.5°F9.7°C 98% Calm Calm -- 29.91 in1012.9 mb - 0.00 in0.0 mm 0.16 in4.1 mm
05:25 AM 50.0°F10.0°C 49.5°F9.7°C 98% Calm Calm -- 29.91 in1012.9 mb - 0.00 in0.0 mm 0.16 in4.1 mm
05:30 AM 50.0°F10.0°C 49.5°F9.7°C 98% Calm Calm -- 29.91 in1012.9 mb - 0.00 in0.0 mm 0.16 in4.1 mm
05:35 AM 50.0°F10.0°C 49.5°F9.7°C 98% Calm Calm -- 29.91 in1012.9 mb - 0.00 in0.0 mm 0.16 in4.1 mm
05:40 AM 50.0°F10.0°C 49.5°F9.7°C 98% Calm Calm -- 29.91 in1012.9 mb - 0.00 in0.0 mm 0.16 in4.1 mm
05:45 AM 49.6°F9.8°C 49.1°F9.5°C 98% Calm Calm -- 29.92 in1013.2 mb - 0.00 in0.0 mm 0.16 in4.1 mm
05:50 AM 49.5°F9.7°C 48.9°F9.4°C 98% Calm Calm -- 29.92 in1013.2 mb - 0.00 in0.0 mm 0.16 in4.1 mm
05:55 AM 49.6°F9.8°C 49.1°F9.5°C 98% Calm Calm -- 29.92 in1013.2 mb - 0.00 in0.0 mm 0.16 in4.1 mm
06:00 AM 49.6°F9.8°C 49.1°F9.5°C 98% Calm Calm 1.2 mph1.9 kmh 29.93 in1013.5 mb - 0.00 in0.0 mm 0.16 in4.1 mm
06:10 AM 50.0°F10.0°C 49.5°F9.7°C 98% 1.2 mph W1.9 kmh W 2.3 mph3.7 kmh 29.93 in1013.5 mb - 0.00 in0.0 mm 0.16 in4.1 mm
06:15 AM 50.0°F10.0°C 49.5°F9.7°C 98% 1.2 mph W1.9 kmh W -- 29.93 in1013.5 mb - 0.00 in0.0 mm 0.16 in4.1 mm
06:20 AM 50.0°F10.0°C 49.5°F9.7°C 98% Calm Calm -- 29.93 in1013.5 mb - 0.00 in0.0 mm 0.16 in4.1 mm
06:25 AM 50.0°F10.0°C 49.5°F9.7°C 98% Calm Calm -- 29.92 in1013.2 mb - 0.00 in0.0 mm 0.16 in4.1 mm
06:30 AM 50.0°F10.0°C 49.5°F9.7°C 98% Calm Calm -- 29.93 in1013.5 mb - 0.00 in0.0 mm 0.16 in4.1 mm
06:35 AM 50.0°F10.0°C 49.5°F9.7°C 98% Calm Calm -- 29.93 in1013.5 mb - 0.00 in0.0 mm 0.16 in4.1 mm
06:40 AM 51.8°F11.0°C 51.3°F10.7°C 98% Calm Calm -- 29.93 in1013.5 mb - 0.00 in0.0 mm 0.16 in4.1 mm
06:45 AM 51.8°F11.0°C 51.3°F10.7°C 98% Calm Calm -- 29.93 in1013.5 mb - 0.00 in0.0 mm 0.16 in4.1 mm
06:50 AM 51.8°F11.0°C 51.3°F10.7°C 98% Calm Calm -- 29.94 in1013.9 mb - 0.00 in0.0 mm 0.16 in4.1 mm
06:55 AM 51.8°F11.0°C 51.3°F10.7°C 98% Calm Calm -- 29.93 in1013.5 mb - 0.00 in0.0 mm 0.16 in4.1 mm
07:00 AM 51.8°F11.0°C 51.3°F10.7°C 98% Calm Calm -- 29.94 in1013.9 mb - 0.00 in0.0 mm 0.16 in4.1 mm
07:10 AM 51.8°F11.0°C 51.3°F10.7°C 98% 1.2 mph W1.9 kmh W 2.3 mph3.7 kmh 29.94 in1013.9 mb - 0.00 in0.0 mm 0.16 in4.1 mm
07:15 AM 51.8°F11.0°C 51.3°F10.7°C 98% 1.2 mph SW1.9 kmh SW 2.3 mph3.7 kmh 29.94 in1013.9 mb - 0.00 in0.0 mm 0.16 in4.1 mm
07:20 AM 52.0°F11.1°C 51.5°F10.8°C 98% 1.2 mph N1.9 kmh N 1.2 mph1.9 kmh 29.94 in1013.9 mb - 0.00 in0.0 mm 0.16 in4.1 mm
07:25 AM 51.8°F11.0°C 51.3°F10.7°C 98% 1.2 mph WNW1.9 kmh WNW 2.3 mph3.7 kmh 29.94 in1013.9 mb - 0.00 in0.0 mm 0.16 in4.1 mm
07:30 AM 53.6°F12.0°C 53.0°F11.7°C 98% 1.2 mph NW1.9 kmh NW -- 29.94 in1013.9 mb - 0.00 in0.0 mm 0.16 in4.1 mm
07:35 AM 53.6°F12.0°C 53.0°F11.7°C 98% 2.3 mph NW3.7 kmh NW 3.5 mph5.6 kmh 29.95 in1014.2 mb - 0.00 in0.0 mm 0.16 in4.1 mm
07:40 AM 53.6°F12.0°C 53.0°F11.7°C 98% 1.2 mph WNW1.9 kmh WNW 3.5 mph5.6 kmh 29.94 in1013.9 mb - 0.00 in0.0 mm 0.16 in4.1 mm
07:45 AM 53.6°F12.0°C 53.0°F11.7°C 98% 2.3 mph SE3.7 kmh SE 1.2 mph1.9 kmh 29.95 in1014.2 mb - 0.00 in0.0 mm 0.16 in4.1 mm
07:50 AM 53.6°F12.0°C 53.0°F11.7°C 98% 2.3 mph WSW3.7 kmh WSW 4.6 mph7.4 kmh 29.95 in1014.2 mb - 0.00 in0.0 mm 0.16 in4.1 mm
07:55 AM 53.6°F12.0°C 52.5°F11.4°C 96% 2.3 mph NE3.7 kmh NE 3.5 mph5.6 kmh 29.95 in1014.2 mb - 0.00 in0.0 mm 0.16 in4.1 mm
08:00 AM 53.6°F12.0°C 53.0°F11.7°C 98% 1.2 mph W1.9 kmh W 1.2 mph1.9 kmh 29.95 in1014.2 mb - 0.00 in0.0 mm 0.16 in4.1 mm
08:10 AM 55.4°F13.0°C 53.7°F12.1°C 94% 3.5 mph NNW5.6 kmh NNW 4.6 mph7.4 kmh 29.95 in1014.2 mb - 0.00 in0.0 mm 0.16 in4.1 mm
08:15 AM 55.4°F13.0°C 54.0°F12.2°C 95% 2.3 mph N3.7 kmh N 1.2 mph1.9 kmh 29.95 in1014.2 mb - 0.00 in0.0 mm 0.16 in4.1 mm
08:20 AM 55.4°F13.0°C 53.4°F11.9°C 93% 1.2 mph SW1.9 kmh SW 3.5 mph5.6 kmh 29.96 in1014.6 mb - 0.00 in0.0 mm 0.16 in4.1 mm
08:25 AM 55.4°F13.0°C 54.0°F12.2°C 95% 1.2 mph W1.9 kmh W 1.2 mph1.9 kmh 29.96 in1014.6 mb - 0.00 in0.0 mm 0.16 in4.1 mm
08:30 AM 55.4°F13.0°C 53.4°F11.9°C 93% 2.3 mph WNW3.7 kmh WNW 4.6 mph7.4 kmh 29.96 in1014.6 mb - 0.00 in0.0 mm 0.16 in4.1 mm
08:35 AM 55.4°F13.0°C 54.3°F12.4°C 96% 1.2 mph SW1.9 kmh SW -- 29.96 in1014.6 mb - 0.00 in0.0 mm 0.16 in4.1 mm
08:40 AM 55.4°F13.0°C 54.0°F12.2°C 95% 1.2 mph WNW1.9 kmh WNW 2.3 mph3.7 kmh 29.96 in1014.6 mb - 0.00 in0.0 mm 0.16 in4.1 mm
08:45 AM 55.4°F13.0°C 54.0°F12.2°C 95% 1.2 mph SSW1.9 kmh SSW 2.3 mph3.7 kmh 29.97 in1014.9 mb - 0.00 in0.0 mm 0.16 in4.1 mm
08:50 AM 57.2°F14.0°C 54.9°F12.7°C 92% 1.2 mph NW1.9 kmh NW 3.5 mph5.6 kmh 29.96 in1014.6 mb - 0.00 in0.0 mm 0.16 in4.1 mm
08:55 AM 57.2°F14.0°C 54.6°F12.6°C 91% 2.3 mph SW3.7 kmh SW 3.5 mph5.6 kmh 29.97 in1014.9 mb - 0.00 in0.0 mm 0.16 in4.1 mm
09:00 AM 59.0°F15.0°C 54.8°F12.7°C 86% 3.5 mph SW5.6 kmh SW 4.6 mph7.4 kmh 29.97 in1014.9 mb - 0.00 in0.0 mm 0.16 in4.1 mm
09:10 AM 59.0°F15.0°C 54.5°F12.5°C 85% 2.3 mph NW3.7 kmh NW 3.5 mph5.6 kmh 29.97 in1014.9 mb - 0.00 in0.0 mm 0.16 in4.1 mm
09:15 AM 59.0°F15.0°C 53.8°F12.1°C 83% 3.5 mph WSW5.6 kmh WSW 3.5 mph5.6 kmh 29.96 in1014.6 mb - 0.00 in0.0 mm 0.16 in4.1 mm
09:20 AM 59.0°F15.0°C 54.2°F12.3°C 84% 2.3 mph W3.7 kmh W 3.5 mph5.6 kmh 29.97 in1014.9 mb - 0.00 in0.0 mm 0.16 in4.1 mm
09:30 AM 60.8°F16.0°C 54.9°F12.7°C 81% 2.3 mph N3.7 kmh N 1.2 mph1.9 kmh 29.97 in1014.9 mb - 0.00 in0.0 mm 0.16 in4.1 mm
09:35 AM 60.8°F16.0°C 54.9°F12.7°C 81% 2.3 mph N3.7 kmh N 1.2 mph1.9 kmh 29.97 in1014.9 mb - 0.00 in0.0 mm 0.16 in4.1 mm
09:40 AM 60.8°F16.0°C 54.9°F12.7°C 81% 2.3 mph N3.7 kmh N 1.2 mph1.9 kmh 29.97 in1014.9 mb - 0.00 in0.0 mm 0.16 in4.1 mm
09:45 AM 60.8°F16.0°C 54.9°F12.7°C 81% 2.3 mph N3.7 kmh N 1.2 mph1.9 kmh 29.97 in1014.9 mb - 0.00 in0.0 mm 0.16 in4.1 mm
09:55 AM 60.8°F16.0°C 54.9°F12.7°C 81% 2.3 mph N3.7 kmh N 1.2 mph1.9 kmh 29.97 in1014.9 mb - 0.00 in0.0 mm 0.16 in4.1 mm
10:15 AM 62.6°F17.0°C 55.3°F12.9°C 77% 3.5 mph NNE5.6 kmh NNE 3.5 mph5.6 kmh 29.96 in1014.6 mb - 0.00 in0.0 mm 0.16 in4.1 mm
10:20 AM 62.6°F17.0°C 53.8°F12.1°C 73% 3.5 mph WNW5.6 kmh WNW 4.6 mph7.4 kmh 29.96 in1014.6 mb - 0.00 in0.0 mm 0.16 in4.1 mm
10:25 AM 62.6°F17.0°C 53.1°F11.7°C 71% 3.5 mph W5.6 kmh W 4.6 mph7.4 kmh 29.96 in1014.6 mb - 0.00 in0.0 mm 0.16 in4.1 mm
10:30 AM 62.6°F17.0°C 53.1°F11.7°C 71% 2.3 mph NW3.7 kmh NW 5.8 mph9.3 kmh 29.97 in1014.9 mb - 0.00 in0.0 mm 0.16 in4.1 mm
10:35 AM 62.6°F17.0°C 52.7°F11.5°C 70% 2.3 mph SE3.7 kmh SE 2.3 mph3.7 kmh 29.97 in1014.9 mb - 0.00 in0.0 mm 0.16 in4.1 mm
10:40 AM 62.6°F17.0°C 52.7°F11.5°C 70% 2.3 mph E3.7 kmh E 5.8 mph9.3 kmh 29.96 in1014.6 mb - 0.00 in0.0 mm 0.16 in4.1 mm
10:45 AM 64.4°F18.0°C 54.0°F12.2°C 69% 2.3 mph N3.7 kmh N 2.3 mph3.7 kmh 29.95 in1014.2 mb - 0.00 in0.0 mm 0.16 in4.1 mm
10:50 AM 64.4°F18.0°C 52.4°F11.3°C 65% 2.3 mph NW3.7 kmh NW 5.8 mph9.3 kmh 29.97 in1014.9 mb - 0.00 in0.0 mm 0.16 in4.1 mm
10:55 AM 64.4°F18.0°C 53.6°F12.0°C 68% 2.3 mph WSW3.7 kmh WSW 3.5 mph5.6 kmh 29.96 in1014.6 mb - 0.00 in0.0 mm 0.16 in4.1 mm
11:00 AM 63.4°F17.4°C 53.4°F11.9°C 70% 2.3 mph NNW3.7 kmh NNW 3.5 mph5.6 kmh 29.96 in1014.6 mb - 0.00 in0.0 mm 0.16 in4.1 mm
11:10 AM 64.4°F18.0°C 53.6°F12.0°C 68% 1.2 mph W1.9 kmh W 3.5 mph5.6 kmh 29.96 in1014.6 mb - 0.00 in0.0 mm 0.16 in4.1 mm
11:15 AM 62.6°F17.0°C 52.7°F11.5°C 70% 2.3 mph W3.7 kmh W 5.8 mph9.3 kmh 29.96 in1014.6 mb - 0.00 in0.0 mm 0.16 in4.1 mm
11:20 AM 62.6°F17.0°C 51.5°F10.8°C 67% 2.3 mph SW3.7 kmh SW 3.5 mph5.6 kmh 29.98 in1015.2 mb - 0.00 in0.0 mm 0.16 in4.1 mm
11:25 AM 62.6°F17.0°C 51.9°F11.1°C 68% 2.3 mph NNW3.7 kmh NNW 2.3 mph3.7 kmh 29.98 in1015.2 mb - 0.00 in0.0 mm 0.16 in4.1 mm
11:30 AM 64.4°F18.0°C 52.8°F11.6°C 66% 2.3 mph W3.7 kmh W 3.5 mph5.6 kmh 29.96 in1014.6 mb - 0.00 in0.0 mm 0.16 in4.1 mm
11:35 AM 64.4°F18.0°C 53.6°F12.0°C 68% 2.3 mph NE3.7 kmh NE 3.5 mph5.6 kmh 29.97 in1014.9 mb - 0.00 in0.0 mm 0.16 in4.1 mm
11:40 AM 64.4°F18.0°C 52.4°F11.3°C 65% 1.2 mph E1.9 kmh E 2.3 mph3.7 kmh 29.98 in1015.2 mb - 0.00 in0.0 mm 0.16 in4.1 mm
11:45 AM 64.4°F18.0°C 52.4°F11.3°C 65% 2.3 mph NW3.7 kmh NW 2.3 mph3.7 kmh 29.96 in1014.6 mb - 0.00 in0.0 mm 0.16 in4.1 mm
11:50 AM 62.6°F17.0°C 52.7°F11.5°C 70% 1.2 mph E1.9 kmh E 2.3 mph3.7 kmh 29.96 in1014.6 mb - 0.00 in0.0 mm 0.16 in4.1 mm
11:55 AM 63.3°F17.4°C 53.0°F11.7°C 69% 1.2 mph W1.9 kmh W 3.5 mph5.6 kmh 29.96 in1014.6 mb - 0.00 in0.0 mm 0.16 in4.1 mm
12:00 PM 62.6°F17.0°C 51.9°F11.1°C 68% 2.3 mph W3.7 kmh W 3.5 mph5.6 kmh 29.96 in1014.6 mb - 0.00 in0.0 mm 0.16 in4.1 mm
12:10 PM 64.4°F18.0°C 55.2°F12.9°C 72% 1.2 mph N1.9 kmh N 3.5 mph5.6 kmh 29.96 in1014.6 mb - 0.00 in0.0 mm 0.16 in4.1 mm
12:15 PM 64.4°F18.0°C 53.2°F11.8°C 67% 1.2 mph WNW1.9 kmh WNW 2.3 mph3.7 kmh 29.96 in1014.6 mb - 0.00 in0.0 mm 0.16 in4.1 mm
12:20 PM 64.4°F18.0°C 53.2°F11.8°C 67% 1.2 mph NE1.9 kmh NE 3.5 mph5.6 kmh 29.96 in1014.6 mb - 0.00 in0.0 mm 0.16 in4.1 mm
12:25 PM 64.4°F18.0°C 53.6°F12.0°C 68% 1.2 mph E1.9 kmh E 1.2 mph1.9 kmh 29.96 in1014.6 mb - 0.00 in0.0 mm 0.16 in4.1 mm
12:30 PM 64.4°F18.0°C 52.8°F11.6°C 66% 1.2 mph E1.9 kmh E 2.3 mph3.7 kmh 29.96 in1014.6 mb - 0.00 in0.0 mm 0.16 in4.1 mm
12:35 PM 64.4°F18.0°C 52.0°F11.1°C 64% 1.2 mph SSW1.9 kmh SSW 2.3 mph3.7 kmh 29.96 in1014.6 mb - 0.00 in0.0 mm 0.16 in4.1 mm
12:40 PM 64.4°F18.0°C 51.1°F10.6°C 62% 2.3 mph 3.7 kmh 3.5 mph5.6 kmh 29.96 in1014.6 mb - 0.00 in0.0 mm 0.16 in4.1 mm
12:45 PM 64.4°F18.0°C 51.1°F10.6°C 62% 2.3 mph W3.7 kmh W 4.6 mph7.4 kmh 29.95 in1014.2 mb - 0.00 in0.0 mm 0.16 in4.1 mm
12:50 PM 64.4°F18.0°C 51.1°F10.6°C 62% 2.3 mph WSW3.7 kmh WSW 1.2 mph1.9 kmh 29.95 in1014.2 mb - 0.00 in0.0 mm 0.16 in4.1 mm
12:55 PM 66.2°F19.0°C 53.2°F11.8°C 63% 1.2 mph NNW1.9 kmh NNW 3.5 mph5.6 kmh 29.95 in1014.2 mb - 0.00 in0.0 mm 0.16 in4.1 mm
01:00 PM 68.0°F20.0°C 53.1°F11.7°C 59% 1.2 mph WSW1.9 kmh WSW 2.3 mph3.7 kmh 29.95 in1014.2 mb - 0.00 in0.0 mm 0.16 in4.1 mm
01:10 PM 68.2°F20.1°C 54.3°F12.4°C 61% 2.3 mph N3.7 kmh N 2.3 mph3.7 kmh 29.95 in1014.2 mb - 0.00 in0.0 mm 0.16 in4.1 mm
01:15 PM 68.0°F20.0°C 54.5°F12.5°C 62% 2.3 mph NNE3.7 kmh NNE 2.3 mph3.7 kmh 29.95 in1014.2 mb - 0.00 in0.0 mm 0.16 in4.1 mm
01:20 PM 69.8°F21.0°C 54.4°F12.4°C 58% 2.3 mph ESE3.7 kmh ESE 3.5 mph5.6 kmh 29.94 in1013.9 mb - 0.00 in0.0 mm 0.16 in4.1 mm
01:25 PM 69.8°F21.0°C 54.4°F12.4°C 58% 2.3 mph SSE3.7 kmh SSE 3.5 mph5.6 kmh 29.94 in1013.9 mb - 0.00 in0.0 mm 0.16 in4.1 mm
01:30 PM 69.4°F20.8°C 53.9°F12.2°C 58% 2.3 mph NE3.7 kmh NE 2.3 mph3.7 kmh 29.94 in1013.9 mb - 0.00 in0.0 mm 0.16 in4.1 mm
01:35 PM 68.0°F20.0°C 51.7°F10.9°C 56% 2.3 mph W3.7 kmh W 2.3 mph3.7 kmh 29.93 in1013.5 mb - 0.00 in0.0 mm 0.16 in4.1 mm
01:40 PM 69.2°F20.7°C 52.9°F11.6°C 56% 1.2 mph W1.9 kmh W 1.2 mph1.9 kmh 29.94 in1013.9 mb - 0.00 in0.0 mm 0.16 in4.1 mm
01:45 PM 69.8°F21.0°C 52.4°F11.3°C 54% 2.3 mph ENE3.7 kmh ENE 2.3 mph3.7 kmh 29.93 in1013.5 mb - 0.00 in0.0 mm 0.16 in4.1 mm
01:50 PM 71.6°F22.0°C 52.0°F11.1°C 50% 1.2 mph W1.9 kmh W 3.5 mph5.6 kmh 29.93 in1013.5 mb - 0.00 in0.0 mm 0.16 in4.1 mm
01:55 PM 69.8°F21.0°C 52.4°F11.3°C 54% 2.3 mph NE3.7 kmh NE 1.2 mph1.9 kmh 29.93 in1013.5 mb - 0.00 in0.0 mm 0.16 in4.1 mm
02:00 PM 68.0°F20.0°C 51.2°F10.7°C 55% 1.2 mph W1.9 kmh W 2.3 mph3.7 kmh 29.93 in1013.5 mb - 0.00 in0.0 mm 0.16 in4.1 mm
02:10 PM 68.2°F20.1°C 51.4°F10.8°C 55% Calm Calm 2.3 mph3.7 kmh 29.93 in1013.5 mb - 0.00 in0.0 mm 0.16 in4.1 mm
02:15 PM 69.7°F20.9°C 50.2°F10.1°C 50% 2.3 mph WNW3.7 kmh WNW 3.5 mph5.6 kmh 29.93 in1013.5 mb - 0.00 in0.0 mm 0.16 in4.1 mm
02:20 PM 69.8°F21.0°C 52.4°F11.3°C 54% 2.3 mph S3.7 kmh S 1.2 mph1.9 kmh 29.93 in1013.5 mb - 0.00 in0.0 mm 0.16 in4.1 mm
02:25 PM 68.0°F20.0°C 51.7°F10.9°C 56% 2.3 mph W3.7 kmh W 3.5 mph5.6 kmh 29.93 in1013.5 mb - 0.00 in0.0 mm 0.16 in4.1 mm
02:30 PM 66.2°F19.0°C 52.3°F11.3°C 61% 2.3 mph W3.7 kmh W 2.3 mph3.7 kmh 29.93 in1013.5 mb - 0.00 in0.0 mm 0.16 in4.1 mm
02:35 PM 66.2°F19.0°C 52.3°F11.3°C 61% 2.3 mph WSW3.7 kmh WSW 4.6 mph7.4 kmh 29.92 in1013.2 mb - 0.00 in0.0 mm 0.16 in4.1 mm
02:40 PM 66.2°F19.0°C 52.3°F11.3°C 61% 4.6 mph W7.4 kmh W 6.9 mph11.1 kmh 29.92 in1013.2 mb - 0.00 in0.0 mm 0.16 in4.1 mm
02:45 PM 62.6°F17.0°C 53.4°F11.9°C 72% 2.3 mph N3.7 kmh N 2.3 mph3.7 kmh 29.92 in1013.2 mb - 0.00 in0.0 mm 0.16 in4.1 mm
02:50 PM 60.8°F16.0°C 57.2°F14.0°C 88% Calm Calm -- 29.92 in1013.2 mb - 0.00 in0.0 mm 0.16 in4.1 mm
02:55 PM 60.8°F16.0°C 57.2°F14.0°C 88% Calm Calm -- 29.93 in1013.5 mb - 0.00 in0.0 mm 0.16 in4.1 mm
03:00 PM 60.8°F16.0°C 56.6°F13.7°C 86% Calm Calm 2.3 mph3.7 kmh 29.92 in1013.2 mb - 0.00 in0.0 mm 0.16 in4.1 mm
03:10 PM 60.8°F16.0°C 56.3°F13.5°C 85% Calm Calm 2.3 mph3.7 kmh 29.93 in1013.5 mb - 0.00 in0.0 mm 0.16 in4.1 mm
03:15 PM 60.8°F16.0°C 54.6°F12.6°C 80% Calm Calm 1.2 mph1.9 kmh 29.92 in1013.2 mb - 0.00 in0.0 mm 0.16 in4.1 mm
03:20 PM 60.8°F16.0°C 53.2°F11.8°C 76% Calm Calm 2.3 mph3.7 kmh 29.93 in1013.5 mb - 0.00 in0.0 mm 0.16 in4.1 mm
03:25 PM 60.8°F16.0°C 52.8°F11.6°C 75% 1.2 mph WSW1.9 kmh WSW 2.3 mph3.7 kmh 29.93 in1013.5 mb - 0.00 in0.0 mm 0.16 in4.1 mm
03:30 PM 60.8°F16.0°C 52.1°F11.2°C 73% 1.2 mph SW1.9 kmh SW 3.5 mph5.6 kmh 29.92 in1013.2 mb - 0.00 in0.0 mm 0.16 in4.1 mm
03:35 PM 60.8°F16.0°C 52.5°F11.4°C 74% 1.2 mph SW1.9 kmh SW 2.3 mph3.7 kmh 29.92 in1013.2 mb - 0.00 in0.0 mm 0.16 in4.1 mm
03:40 PM 60.8°F16.0°C 51.7°F10.9°C 72% 2.3 mph NW3.7 kmh NW 5.8 mph9.3 kmh 29.92 in1013.2 mb - 0.00 in0.0 mm 0.16 in4.1 mm
03:45 PM 62.1°F16.7°C 52.6°F11.4°C 71% 1.2 mph WSW1.9 kmh WSW 3.5 mph5.6 kmh 29.93 in1013.5 mb - 0.00 in0.0 mm 0.16 in4.1 mm
03:50 PM 62.6°F17.0°C 52.7°F11.5°C 70% 3.5 mph WSW5.6 kmh WSW 3.5 mph5.6 kmh 29.93 in1013.5 mb - 0.00 in0.0 mm 0.16 in4.1 mm
03:55 PM 64.4°F18.0°C 54.0°F12.2°C 69% 2.3 mph W3.7 kmh W 3.5 mph5.6 kmh 29.93 in1013.5 mb - 0.00 in0.0 mm 0.16 in4.1 mm
04:00 PM 64.4°F18.0°C 53.6°F12.0°C 68% 3.5 mph W5.6 kmh W 3.5 mph5.6 kmh 29.92 in1013.2 mb - 0.00 in0.0 mm 0.16 in4.1 mm
04:10 PM 66.2°F19.0°C 51.9°F11.1°C 60% 3.5 mph SSW5.6 kmh SSW 4.6 mph7.4 kmh 29.92 in1013.2 mb - 0.00 in0.0 mm 0.16 in4.1 mm
04:15 PM 68.0°F20.0°C 54.0°F12.2°C 61% 3.5 mph W5.6 kmh W 3.5 mph5.6 kmh 29.92 in1013.2 mb - 0.00 in0.0 mm 0.16 in4.1 mm
04:20 PM 66.2°F19.0°C 51.5°F10.8°C 59% 3.5 mph NNE5.6 kmh NNE 2.3 mph3.7 kmh 29.93 in1013.5 mb - 0.00 in0.0 mm 0.16 in4.1 mm
04:25 PM 67.3°F19.6°C 52.9°F11.6°C 60% 2.3 mph W3.7 kmh W 3.5 mph5.6 kmh 29.92 in1013.2 mb - 0.00 in0.0 mm 0.16 in4.1 mm
04:30 PM 65.5°F18.6°C 51.2°F10.7°C 60% 3.5 mph S5.6 kmh S 3.5 mph5.6 kmh 29.93 in1013.5 mb - 0.00 in0.0 mm 0.16 in4.1 mm
04:35 PM 64.4°F18.0°C 52.0°F11.1°C 64% 3.5 mph NW5.6 kmh NW 4.6 mph7.4 kmh 29.92 in1013.2 mb - 0.00 in0.0 mm 0.16 in4.1 mm
04:40 PM 64.4°F18.0°C 53.6°F12.0°C 68% 1.2 mph SW1.9 kmh SW 1.2 mph1.9 kmh 29.93 in1013.5 mb - 0.00 in0.0 mm 0.16 in4.1 mm
04:45 PM 62.6°F17.0°C 52.7°F11.5°C 70% Calm Calm -- 29.93 in1013.5 mb - 0.00 in0.0 mm 0.16 in4.1 mm
04:50 PM 62.6°F17.0°C 51.1°F10.6°C 66% 1.2 mph SE1.9 kmh SE 2.3 mph3.7 kmh 29.93 in1013.5 mb - 0.00 in0.0 mm 0.16 in4.1 mm
04:55 PM 62.6°F17.0°C 52.3°F11.3°C 69% 1.2 mph WSW1.9 kmh WSW 3.5 mph5.6 kmh 29.93 in1013.5 mb - 0.00 in0.0 mm 0.16 in4.1 mm
05:00 PM 63.3°F17.4°C 52.1°F11.2°C 67% 1.2 mph SW1.9 kmh SW 1.2 mph1.9 kmh 29.94 in1013.9 mb - 0.00 in0.0 mm 0.16 in4.1 mm
05:10 PM 64.4°F18.0°C 52.4°F11.3°C 65% Calm Calm -- 29.94 in1013.9 mb - 0.00 in0.0 mm 0.16 in4.1 mm
05:15 PM 64.4°F18.0°C 54.0°F12.2°C 69% Calm Calm 2.3 mph3.7 kmh 29.94 in1013.9 mb - 0.00 in0.0 mm 0.16 in4.1 mm
05:20 PM 62.6°F17.0°C 52.7°F11.5°C 70% 1.2 mph E1.9 kmh E 2.3 mph3.7 kmh 29.94 in1013.9 mb - 0.00 in0.0 mm 0.16 in4.1 mm
05:25 PM 62.6°F17.0°C 53.1°F11.7°C 71% 1.2 mph NW1.9 kmh NW 1.2 mph1.9 kmh 29.95 in1014.2 mb - 0.00 in0.0 mm 0.16 in4.1 mm
05:30 PM 62.6°F17.0°C 52.7°F11.5°C 70% 1.2 mph ESE1.9 kmh ESE 3.5 mph5.6 kmh 29.94 in1013.9 mb - 0.00 in0.0 mm 0.16 in4.1 mm
05:35 PM 60.8°F16.0°C 52.5°F11.4°C 74% 1.2 mph NW1.9 kmh NW 2.3 mph3.7 kmh 29.95 in1014.2 mb - 0.00 in0.0 mm 0.16 in4.1 mm
05:40 PM 60.8°F16.0°C 52.1°F11.2°C 73% 1.2 mph E1.9 kmh E 1.2 mph1.9 kmh 29.95 in1014.2 mb - 0.00 in0.0 mm 0.16 in4.1 mm
05:45 PM 60.8°F16.0°C 52.8°F11.6°C 75% Calm Calm -- 29.95 in1014.2 mb - 0.00 in0.0 mm 0.16 in4.1 mm
05:50 PM 60.8°F16.0°C 54.9°F12.7°C 81% Calm Calm -- 29.95 in1014.2 mb - 0.01 in0.3 mm 0.17 in4.3 mm
05:55 PM 59.0°F15.0°C 56.4°F13.6°C 91% Calm Calm -- 29.95 in1014.2 mb - 0.01 in0.3 mm 0.18 in4.6 mm
06:00 PM 59.0°F15.0°C 57.3°F14.1°C 94% 1.2 mph W1.9 kmh W 1.2 mph1.9 kmh 29.95 in1014.2 mb - 0.00 in0.0 mm 0.18 in4.6 mm
06:10 PM 59.0°F15.0°C 56.4°F13.6°C 91% Calm Calm 2.3 mph3.7 kmh 29.95 in1014.2 mb - 0.01 in0.3 mm 0.19 in4.8 mm
06:15 PM 59.0°F15.0°C 56.4°F13.6°C 91% Calm Calm -- 29.94 in1013.9 mb - 0.00 in0.0 mm 0.19 in4.8 mm
06:20 PM 57.3°F14.1°C 54.7°F12.6°C 91% Calm Calm -- 29.95 in1014.2 mb - 0.00 in0.0 mm 0.19 in4.8 mm
06:25 PM 57.2°F14.0°C 54.9°F12.7°C 92% Calm Calm 1.2 mph1.9 kmh 29.95 in1014.2 mb - 0.00 in0.0 mm 0.19 in4.8 mm
06:30 PM 57.2°F14.0°C 55.8°F13.2°C 95% Calm Calm -- 29.95 in1014.2 mb - 0.00 in0.0 mm 0.19 in4.8 mm
06:35 PM 57.2°F14.0°C 55.2°F12.9°C 93% Calm Calm 2.3 mph3.7 kmh 29.94 in1013.9 mb - 0.00 in0.0 mm 0.19 in4.8 mm
06:40 PM 57.2°F14.0°C 55.8°F13.2°C 95% Calm Calm 1.2 mph1.9 kmh 29.95 in1014.2 mb - 0.00 in0.0 mm 0.19 in4.8 mm
06:45 PM 57.2°F14.0°C 55.2°F12.9°C 93% Calm Calm 1.2 mph1.9 kmh 29.95 in1014.2 mb - 0.00 in0.0 mm 0.19 in4.8 mm
06:50 PM 59.0°F15.0°C 56.4°F13.6°C 91% Calm Calm 1.2 mph1.9 kmh 29.95 in1014.2 mb - 0.00 in0.0 mm 0.19 in4.8 mm
06:55 PM 59.0°F15.0°C 56.1°F13.4°C 90% 1.2 mph NW1.9 kmh NW 2.3 mph3.7 kmh 29.96 in1014.6 mb - 0.00 in0.0 mm 0.19 in4.8 mm
07:00 PM 59.0°F15.0°C 56.1°F13.4°C 90% Calm Calm -- 29.96 in1014.6 mb - 0.00 in0.0 mm 0.19 in4.8 mm
07:10 PM 57.2°F14.0°C 54.3°F12.4°C 90% Calm Calm 1.2 mph1.9 kmh 29.96 in1014.6 mb - 0.00 in0.0 mm 0.19 in4.8 mm
07:15 PM 57.2°F14.0°C 54.6°F12.6°C 91% Calm Calm -- 29.96 in1014.6 mb - 0.00 in0.0 mm 0.19 in4.8 mm
07:20 PM 57.2°F14.0°C 54.6°F12.6°C 91% Calm Calm -- 29.96 in1014.6 mb - 0.00 in0.0 mm 0.19 in4.8 mm
07:25 PM 57.2°F14.0°C 55.2°F12.9°C 93% Calm Calm -- 29.96 in1014.6 mb - 0.00 in0.0 mm 0.19 in4.8 mm
07:30 PM 57.2°F14.0°C 55.2°F12.9°C 93% Calm Calm 2.3 mph3.7 kmh 29.96 in1014.6 mb - 0.00 in0.0 mm 0.19 in4.8 mm
07:35 PM 57.2°F14.0°C 55.2°F12.9°C 93% Calm Calm -- 29.96 in1014.6 mb - 0.00 in0.0 mm 0.19 in4.8 mm
07:40 PM 57.2°F14.0°C 54.6°F12.6°C 91% Calm Calm -- 29.96 in1014.6 mb - 0.00 in0.0 mm 0.19 in4.8 mm
07:45 PM 57.2°F14.0°C 54.6°F12.6°C 91% 1.2 mph W1.9 kmh W 1.2 mph1.9 kmh 29.95 in1014.2 mb - 0.00 in0.0 mm 0.19 in4.8 mm
07:50 PM 57.2°F14.0°C 54.6°F12.6°C 91% 1.2 mph W1.9 kmh W 1.2 mph1.9 kmh 29.96 in1014.6 mb - 0.00 in0.0 mm 0.19 in4.8 mm
07:55 PM 57.2°F14.0°C 54.6°F12.6°C 91% Calm Calm 1.2 mph1.9 kmh 29.96 in1014.6 mb - 0.00 in0.0 mm 0.19 in4.8 mm
08:00 PM 57.2°F14.0°C 54.6°F12.6°C 91% 1.2 mph WNW1.9 kmh WNW -- 29.96 in1014.6 mb - 0.00 in0.0 mm 0.19 in4.8 mm
08:10 PM 55.4°F13.0°C 52.8°F11.6°C 91% Calm Calm -- 29.95 in1014.2 mb - 0.00 in0.0 mm 0.19 in4.8 mm
08:15 PM 55.4°F13.0°C 52.8°F11.6°C 91% Calm Calm -- 29.95 in1014.2 mb - 0.00 in0.0 mm 0.19 in4.8 mm
08:20 PM 55.4°F13.0°C 52.8°F11.6°C 91% Calm Calm 1.2 mph1.9 kmh 29.95 in1014.2 mb - 0.00 in0.0 mm 0.19 in4.8 mm
08:25 PM 55.4°F13.0°C 53.4°F11.9°C 93% Calm Calm 2.3 mph3.7 kmh 29.95 in1014.2 mb - 0.00 in0.0 mm 0.19 in4.8 mm
08:30 PM 55.4°F13.0°C 53.4°F11.9°C 93% 1.2 mph WNW1.9 kmh WNW 1.2 mph1.9 kmh 29.95 in1014.2 mb - 0.00 in0.0 mm 0.19 in4.8 mm
08:35 PM 55.4°F13.0°C 54.0°F12.2°C 95% Calm Calm -- 29.95 in1014.2 mb - 0.00 in0.0 mm 0.19 in4.8 mm
08:40 PM 55.4°F13.0°C 54.3°F12.4°C 96% Calm Calm -- 29.95 in1014.2 mb - 0.00 in0.0 mm 0.19 in4.8 mm
08:45 PM 55.4°F13.0°C 54.0°F12.2°C 95% Calm Calm 1.2 mph1.9 kmh 29.95 in1014.2 mb - 0.00 in0.0 mm 0.19 in4.8 mm
08:50 PM 55.4°F13.0°C 54.3°F12.4°C 96% Calm Calm -- 29.94 in1013.9 mb - 0.00 in0.0 mm 0.19 in4.8 mm
08:55 PM 53.6°F12.0°C 52.5°F11.4°C 96% Calm Calm -- 29.95 in1014.2 mb - 0.00 in0.0 mm 0.19 in4.8 mm
09:00 PM 53.6°F12.0°C 52.5°F11.4°C 96% Calm Calm -- 29.95 in1014.2 mb - 0.00 in0.0 mm 0.19 in4.8 mm
09:10 PM 53.6°F12.0°C 52.5°F11.4°C 96% 2.3 mph WSW3.7 kmh WSW 1.2 mph1.9 kmh 29.95 in1014.2 mb - 0.00 in0.0 mm 0.19 in4.8 mm
09:15 PM 53.6°F12.0°C 52.2°F11.2°C 95% 2.3 mph WNW3.7 kmh WNW 2.3 mph3.7 kmh 29.95 in1014.2 mb - 0.00 in0.0 mm 0.19 in4.8 mm
09:20 PM 53.6°F12.0°C 52.5°F11.4°C 96% 2.3 mph W3.7 kmh W 5.8 mph9.3 kmh 29.96 in1014.6 mb - 0.00 in0.0 mm 0.19 in4.8 mm
09:25 PM 53.6°F12.0°C 52.5°F11.4°C 96% 3.5 mph WSW5.6 kmh WSW 4.6 mph7.4 kmh 29.96 in1014.6 mb - 0.01 in0.3 mm 0.20 in5.1 mm
09:30 PM 53.6°F12.0°C 53.0°F11.7°C 98% 2.3 mph W3.7 kmh W 2.3 mph3.7 kmh 29.96 in1014.6 mb - 0.00 in0.0 mm 0.20 in5.1 mm
09:35 PM 51.8°F11.0°C 51.3°F10.7°C 98% 1.2 mph W1.9 kmh W 2.3 mph3.7 kmh 29.96 in1014.6 mb - 0.00 in0.0 mm 0.20 in5.1 mm
09:40 PM 51.8°F11.0°C 51.3°F10.7°C 98% 1.2 mph S1.9 kmh S 3.5 mph5.6 kmh 29.96 in1014.6 mb - 0.00 in0.0 mm 0.20 in5.1 mm
09:45 PM 51.8°F11.0°C 51.3°F10.7°C 98% 3.5 mph W5.6 kmh W 4.6 mph7.4 kmh 29.96 in1014.6 mb - 0.00 in0.0 mm 0.20 in5.1 mm
09:50 PM 51.8°F11.0°C 51.3°F10.7°C 98% 3.5 mph WNW5.6 kmh WNW 3.5 mph5.6 kmh 29.96 in1014.6 mb - 0.00 in0.0 mm 0.20 in5.1 mm
09:55 PM 51.8°F11.0°C 51.3°F10.7°C 98% 4.6 mph W7.4 kmh W 3.5 mph5.6 kmh 29.96 in1014.6 mb - 0.01 in0.3 mm 0.21 in5.3 mm
10:00 PM 51.8°F11.0°C 51.3°F10.7°C 98% 2.3 mph N3.7 kmh N 3.5 mph5.6 kmh 29.97 in1014.9 mb - 0.01 in0.3 mm 0.22 in5.6 mm
10:10 PM 51.8°F11.0°C 51.3°F10.7°C 98% 2.3 mph SW3.7 kmh SW 3.5 mph5.6 kmh 29.97 in1014.9 mb - 0.01 in0.3 mm 0.23 in5.8 mm
10:15 PM 51.8°F11.0°C 51.3°F10.7°C 98% 2.3 mph SW3.7 kmh SW 3.5 mph5.6 kmh 29.97 in1014.9 mb - 0.00 in0.0 mm 0.23 in5.8 mm
10:20 PM 51.8°F11.0°C 51.3°F10.7°C 98% 2.3 mph WNW3.7 kmh WNW 3.5 mph5.6 kmh 29.97 in1014.9 mb - 0.00 in0.0 mm 0.23 in5.8 mm
10:25 PM 51.8°F11.0°C 51.3°F10.7°C 98% 2.3 mph WSW3.7 kmh WSW 3.5 mph5.6 kmh 29.97 in1014.9 mb - 0.00 in0.0 mm 0.23 in5.8 mm
10:30 PM 51.8°F11.0°C 51.3°F10.7°C 98% 2.3 mph SSE3.7 kmh SSE 2.3 mph3.7 kmh 29.96 in1014.6 mb - 0.00 in0.0 mm 0.23 in5.8 mm
10:35 PM 51.8°F11.0°C 51.3°F10.7°C 98% 1.2 mph WSW1.9 kmh WSW 2.3 mph3.7 kmh 29.96 in1014.6 mb - 0.00 in0.0 mm 0.23 in5.8 mm
10:40 PM 51.8°F11.0°C 51.3°F10.7°C 98% 2.3 mph W3.7 kmh W 2.3 mph3.7 kmh 29.96 in1014.6 mb - 0.00 in0.0 mm 0.23 in5.8 mm
10:45 PM 51.8°F11.0°C 51.3°F10.7°C 98% 1.2 mph NW1.9 kmh NW -- 29.96 in1014.6 mb - 0.00 in0.0 mm 0.23 in5.8 mm
10:50 PM 51.8°F11.0°C 51.3°F10.7°C 98% Calm Calm -- 29.96 in1014.6 mb - 0.00 in0.0 mm 0.23 in5.8 mm
10:55 PM 50.0°F10.0°C 49.5°F9.7°C 98% 1.2 mph WSW1.9 kmh WSW 1.2 mph1.9 kmh 29.96 in1014.6 mb - 0.00 in0.0 mm 0.23 in5.8 mm
11:00 PM 50.0°F10.0°C 49.5°F9.7°C 98% 1.2 mph NW1.9 kmh NW 2.3 mph3.7 kmh 29.96 in1014.6 mb - 0.00 in0.0 mm 0.23 in5.8 mm
11:10 PM 50.0°F10.0°C 49.5°F9.7°C 98% 1.2 mph SW1.9 kmh SW -- 29.96 in1014.6 mb - 0.00 in0.0 mm 0.23 in5.8 mm
11:15 PM 50.0°F10.0°C 49.5°F9.7°C 98% 1.2 mph SW1.9 kmh SW 2.3 mph3.7 kmh 29.96 in1014.6 mb - 0.00 in0.0 mm 0.23 in5.8 mm
11:20 PM 50.0°F10.0°C 49.5°F9.7°C 98% 2.3 mph W3.7 kmh W 3.5 mph5.6 kmh 29.96 in1014.6 mb - 0.00 in0.0 mm 0.23 in5.8 mm
11:25 PM 50.0°F10.0°C 49.5°F9.7°C 98% 1.2 mph W1.9 kmh W 2.3 mph3.7 kmh 29.96 in1014.6 mb - 0.00 in0.0 mm 0.23 in5.8 mm
11:30 PM 50.0°F10.0°C 49.5°F9.7°C 98% 1.2 mph WSW1.9 kmh WSW 3.5 mph5.6 kmh 29.96 in1014.6 mb - 0.00 in0.0 mm 0.23 in5.8 mm
11:35 PM 49.9°F9.9°C 49.3°F9.6°C 98% 2.3 mph NW3.7 kmh NW 3.5 mph5.6 kmh 29.95 in1014.2 mb - 0.00 in0.0 mm 0.23 in5.8 mm
11:40 PM 49.8°F9.9°C 49.3°F9.6°C 98% 2.3 mph WSW3.7 kmh WSW 2.3 mph3.7 kmh 29.96 in1014.6 mb - 0.00 in0.0 mm 0.23 in5.8 mm
11:45 PM 49.6°F9.8°C 49.1°F9.5°C 98% 1.2 mph NW1.9 kmh NW 1.2 mph1.9 kmh 29.96 in1014.6 mb - 0.00 in0.0 mm 0.23 in5.8 mm
11:50 PM 49.5°F9.7°C 48.9°F9.4°C 98% 2.3 mph SSW3.7 kmh SSW 2.3 mph3.7 kmh 29.95 in1014.2 mb - 0.00 in0.0 mm 0.23 in5.8 mm
11:55 PM 49.5°F9.7°C 48.9°F9.4°C 98% 1.2 mph S1.9 kmh S 1.2 mph1.9 kmh 29.96 in1014.6 mb - 0.00 in0.0 mm 0.23 in5.8 mm